createdAt,value
2018-07-19T00:00:27.960Z,101077.06
2018-07-19T00:02:55.570Z,101075.39
2018-07-19T00:05:23.332Z,101078.05
2018-07-19T00:07:50.112Z,101080.70
2018-07-19T00:10:18.632Z,101086.67
2018-07-19T00:12:45.267Z,101080.52
2018-07-19T00:15:12.921Z,101079.19
2018-07-19T00:17:41.854Z,101077.86
2018-07-19T00:20:10.017Z,101073.98
2018-07-19T00:22:36.671Z,101078.81
2018-07-19T00:25:03.453Z,101079.19
2018-07-19T00:27:30.129Z,101084.20
2018-07-19T00:29:56.775Z,101086.52
2018-07-19T00:32:24.430Z,101079.30
2018-07-19T00:34:52.088Z,101087.58
2018-07-19T00:37:18.849Z,101082.11
2018-07-19T00:39:45.517Z,101077.78
2018-07-19T00:42:13.135Z,101082.80
2018-07-19T00:44:39.878Z,101077.63
2018-07-19T00:47:06.541Z,101073.45
2018-07-19T00:49:34.068Z,101071.97
2018-07-19T00:52:00.761Z,101076.30
2018-07-19T00:54:27.430Z,101070.49
2018-07-19T00:56:54.921Z,101072.81
2018-07-19T00:59:21.561Z,101065.67
2018-07-19T01:01:49.148Z,101068.82
2018-07-19T01:04:15.851Z,101067.64
2018-07-19T01:06:42.500Z,101066.66
2018-07-19T01:09:10.997Z,101065.82
2018-07-19T01:11:37.789Z,101067.08
2018-07-19T01:14:04.560Z,101065.59
2018-07-19T01:16:31.201Z,101068.90
2018-07-19T01:18:57.901Z,101064.42
2018-07-19T01:21:25.488Z,101061.61
2018-07-19T01:23:52.164Z,101058.95
2018-07-19T01:26:20.225Z,101059.59
2018-07-19T01:28:47.665Z,101063.44
2018-07-19T01:31:14.346Z,101057.77
2018-07-19T01:33:42.033Z,101061.42
2018-07-19T01:36:09.760Z,101063.70
2018-07-19T01:38:36.528Z,101065.25
2018-07-19T01:41:09.748Z,101068.06
2018-07-19T01:43:36.385Z,101065.41
2018-07-19T01:46:03.250Z,101068.41
2018-07-19T01:48:29.909Z,101067.08
2018-07-19T01:50:56.544Z,101070.72
2018-07-19T01:53:23.221Z,101068.67
2018-07-19T01:55:49.873Z,101072.17
2018-07-19T01:58:17.657Z,101068.98
2018-07-19T02:00:44.330Z,101071.48
2018-07-19T02:03:10.964Z,101072.81
2018-07-19T02:05:37.605Z,101071.48
2018-07-19T02:08:04.264Z,101067.65
2018-07-19T02:10:30.921Z,101069.17
2018-07-19T02:12:57.559Z,101072.97
2018-07-19T02:15:25.211Z,101072.81
2018-07-19T02:17:51.857Z,101069.81
2018-07-19T02:20:18.533Z,101071.14
2018-07-19T02:22:45.201Z,101076.08
2018-07-19T02:25:11.846Z,101078.28
2018-07-19T02:27:38.560Z,101075.81
2018-07-19T02:30:06.078Z,101075.81
2018-07-19T02:32:32.723Z,101076.73
2018-07-19T02:34:59.380Z,101074.98
2018-07-19T02:37:26.061Z,101076.45
2018-07-19T02:39:52.713Z,101075.62
2018-07-19T02:42:19.557Z,101077.07
2018-07-19T02:44:46.212Z,101079.88
2018-07-19T02:47:13.700Z,101071.41
2018-07-19T02:49:40.341Z,101082.54
2018-07-19T02:52:06.992Z,101084.97
2018-07-19T02:54:34.453Z,101077.34
2018-07-19T02:57:01.180Z,101080.98
2018-07-19T02:59:27.831Z,101074.34
2018-07-19T03:01:54.505Z,101077.98
2018-07-19T03:04:21.144Z,101078.97
2018-07-19T03:06:49.084Z,101073.16
2018-07-19T03:09:15.717Z,101074.64
2018-07-19T03:11:43.281Z,101067.35
2018-07-19T03:14:09.964Z,101067.50
2018-07-19T03:16:36.616Z,101065.34
2018-07-19T03:19:03.295Z,101066.52
2018-07-19T03:21:30.912Z,101069.02
2018-07-19T03:23:58.433Z,101064.20
2018-07-19T03:26:25.117Z,101066.66
2018-07-19T03:28:51.763Z,101068.34
2018-07-19T03:31:19.518Z,101067.01
2018-07-19T03:33:48.532Z,101067.01
2018-07-19T03:36:17.889Z,101060.14
2018-07-19T03:38:45.388Z,101055.47
2018-07-19T03:41:12.037Z,101059.30
2018-07-19T03:43:40.147Z,101059.30
2018-07-19T03:46:06.848Z,101065.34
2018-07-19T03:48:33.502Z,101064.84
2018-07-19T03:51:00.188Z,101066.17
2018-07-19T03:53:26.836Z,101068.95
2018-07-19T03:55:54.556Z,101066.66
2018-07-19T03:58:21.237Z,101065.38
2018-07-19T04:00:50.169Z,101064.70
2018-07-19T04:03:17.472Z,101062.68
2018-07-19T04:05:44.152Z,101068.11
2018-07-19T04:08:10.797Z,101072.94
2018-07-19T04:10:37.448Z,101072.74
2018-07-19T04:13:04.124Z,101072.74
2018-07-19T04:15:30.777Z,101071.98
2018-07-19T04:17:58.165Z,101075.74
2018-07-19T04:20:25.948Z,101076.16
2018-07-19T04:22:53.240Z,101079.80
2018-07-19T04:25:20.054Z,101078.55
2018-07-19T04:27:47.840Z,101090.70
2018-07-19T04:30:14.472Z,101086.87
2018-07-19T04:32:41.545Z,101083.03
2018-07-19T04:35:08.198Z,101096.17
2018-07-19T04:37:35.629Z,101090.36
2018-07-19T04:40:02.684Z,101092.03
2018-07-19T04:42:29.368Z,101090.13
2018-07-19T04:44:56.013Z,101098.06
2018-07-19T04:47:22.652Z,101097.34
2018-07-19T04:49:49.329Z,101097.01
2018-07-19T04:52:15.978Z,101102.66
2018-07-19T04:54:42.853Z,101102.47
2018-07-19T04:57:10.161Z,101110.94
2018-07-19T04:59:36.842Z,101105.97
2018-07-19T05:02:03.553Z,101112.61
2018-07-19T05:04:31.078Z,101109.31
2018-07-19T05:06:58.496Z,101106.53
2018-07-19T05:09:25.168Z,101111.85
2018-07-19T05:11:51.820Z,101113.45
2018-07-19T05:14:18.460Z,101112.45
2018-07-19T05:16:45.121Z,101110.78
2018-07-19T05:19:11.792Z,101108.47
2018-07-19T05:21:39.676Z,101110.52
2018-07-19T05:24:06.336Z,101110.44
2018-07-19T05:26:33.013Z,101110.52
2018-07-19T05:28:59.697Z,101114.77
2018-07-19T05:31:26.364Z,101114.13
2018-07-19T05:33:53.193Z,101108.20
2018-07-19T05:36:19.845Z,101115.46
2018-07-19T05:38:47.752Z,101114.02
2018-07-19T05:41:14.427Z,101108.63
2018-07-19T05:43:41.084Z,101113.79
2018-07-19T05:46:07.741Z,101110.44
2018-07-19T05:48:34.409Z,101110.64
2018-07-19T05:51:01.085Z,101109.53
2018-07-19T05:53:28.584Z,101108.63
2018-07-19T05:55:55.557Z,101107.87
2018-07-19T05:58:22.244Z,101108.78
2018-07-19T06:00:49.355Z,101109.69
2018-07-19T06:03:16.044Z,101105.48
2018-07-19T06:05:42.768Z,101111.14
2018-07-19T06:08:10.520Z,101110.30
2018-07-19T06:10:37.186Z,101109.23
2018-07-19T06:13:03.880Z,101113.30
2018-07-19T06:15:31.604Z,101111.89
2018-07-19T06:17:59.202Z,101112.39
2018-07-19T06:20:26.817Z,101107.72
2018-07-19T06:22:53.487Z,101108.70
2018-07-19T06:25:20.149Z,101107.38
2018-07-19T06:27:47.576Z,101110.86
2018-07-19T06:30:14.238Z,101109.95
2018-07-19T06:32:41.844Z,101110.80
2018-07-19T06:35:09.579Z,101114.28
2018-07-19T06:37:36.292Z,101113.94
2018-07-19T06:40:02.969Z,101116.99
2018-07-19T06:42:30.599Z,101115.73
2018-07-19T06:44:58.354Z,101116.76
2018-07-19T06:47:25.024Z,101109.42
2018-07-19T06:49:51.678Z,101113.48
2018-07-19T06:52:18.617Z,101114.39
2018-07-19T06:54:45.276Z,101112.16
2018-07-19T06:57:11.944Z,101114.39
2018-07-19T06:59:39.480Z,101119.48
2018-07-19T07:02:06.163Z,101114.81
2018-07-19T07:04:32.825Z,101117.47
2018-07-19T07:07:00.459Z,101114.05
2018-07-19T07:09:27.956Z,101119.14
2018-07-19T07:11:54.636Z,101122.58
2018-07-19T07:14:21.304Z,101121.13
2018-07-19T07:16:49.452Z,101119.64
2018-07-19T07:19:16.205Z,101114.94
2018-07-19T07:21:43.396Z,101115.58
2018-07-19T07:24:10.947Z,101120.25
2018-07-19T07:26:37.608Z,101117.90
2018-07-19T07:29:04.267Z,101125.73
2018-07-19T07:31:30.932Z,101125.58
2018-07-19T07:33:57.729Z,101124.89
2018-07-19T07:36:25.320Z,101129.69
2018-07-19T07:38:52.897Z,101129.69
2018-07-19T07:41:19.596Z,101133.56
2018-07-19T07:43:46.286Z,101136.49
2018-07-19T07:46:13.980Z,101135.16
2018-07-19T07:48:41.500Z,101137.11
2018-07-19T07:51:09.161Z,101135.88
2018-07-19T07:53:35.878Z,101138.88
2018-07-19T07:56:02.613Z,101142.27
2018-07-19T07:58:29.324Z,101135.69
2018-07-19T08:00:56.024Z,101140.98
2018-07-19T08:03:22.681Z,101143.23
2018-07-19T08:05:49.493Z,101147.28
2018-07-19T08:08:17.612Z,101150.43
2018-07-19T08:10:45.272Z,101144.27
2018-07-19T08:13:11.949Z,101147.25
2018-07-19T08:15:40.132Z,101148.88
2018-07-19T08:18:06.793Z,101145.41
2018-07-19T08:20:33.468Z,101148.47
2018-07-19T08:23:00.168Z,101151.58
2018-07-19T08:25:26.906Z,101152.57
2018-07-19T08:27:53.856Z,101161.08
2018-07-19T08:30:20.710Z,101161.27
2018-07-19T08:32:48.035Z,101165.67
2018-07-19T08:35:14.716Z,101161.39
2018-07-19T08:37:41.430Z,101157.89
2018-07-19T08:40:08.260Z,101157.20
2018-07-19T08:42:37.708Z,101160.13
2018-07-19T08:45:04.849Z,101162.37
2018-07-19T08:47:31.501Z,101171.12
2018-07-19T08:49:58.180Z,101173.66
2018-07-19T08:52:25.848Z,101178.18
2018-07-19T08:54:52.548Z,101172.02
2018-07-19T08:57:20.230Z,101181.41
2018-07-19T08:59:48.208Z,101180.84
2018-07-19T09:02:15.723Z,101184.83
2018-07-19T09:04:42.408Z,101182.89
2018-07-19T09:07:10.193Z,101190.15
2018-07-19T09:09:36.868Z,101187.00
2018-07-19T09:12:04.490Z,101194.97
2018-07-19T09:14:32.019Z,101196.80
2018-07-19T09:16:59.589Z,101201.36
2018-07-19T09:19:27.160Z,101202.48
2018-07-19T09:21:54.700Z,101196.03
2018-07-19T09:24:21.378Z,101198.70
2018-07-19T09:26:48.945Z,101197.36
2018-07-19T09:29:15.658Z,101196.03
2018-07-19T09:31:42.416Z,101194.94
2018-07-19T09:34:10.064Z,101182.39
2018-07-19T09:36:37.850Z,101190.64
2018-07-19T09:39:06.596Z,101195.69
2018-07-19T09:41:33.481Z,101190.87
2018-07-19T09:44:00.365Z,101191.85
2018-07-19T09:46:27.273Z,101190.38
2018-07-19T09:48:54.174Z,101189.61
2018-07-19T09:51:21.051Z,101190.45
2018-07-19T09:53:49.041Z,101193.87
2018-07-19T09:56:18.479Z,101192.46
2018-07-19T09:58:47.590Z,101192.31
2018-07-19T10:01:20.230Z,101201.69
2018-07-19T10:03:50.575Z,101194.55
2018-07-19T10:06:19.548Z,101202.75
2018-07-19T10:08:48.112Z,101205.41
2018-07-19T10:11:16.142Z,101204.70
2018-07-19T10:13:43.135Z,101210.24
2018-07-19T10:16:11.331Z,101204.23
2018-07-19T10:18:38.373Z,101205.68
2018-07-19T10:21:05.283Z,101202.03
2018-07-19T10:23:32.195Z,101210.66
2018-07-19T10:25:59.080Z,101206.32
2018-07-19T10:28:27.040Z,101203.36
2018-07-19T10:30:53.953Z,101207.58
2018-07-19T10:33:21.770Z,101202.91
2018-07-19T10:35:48.925Z,101205.07
2018-07-19T10:38:17.938Z,101204.09
2018-07-19T10:40:44.873Z,101209.33
2018-07-19T10:43:12.694Z,101211.72
2018-07-19T10:45:40.637Z,101208.48
2018-07-19T10:48:09.951Z,101212.82
2018-07-19T10:50:37.908Z,101213.31
2018-07-19T10:53:05.456Z,101205.15
2018-07-19T10:55:32.388Z,101206.83
2018-07-19T10:57:59.275Z,101203.63
2018-07-19T11:00:26.146Z,101207.50
2018-07-19T11:02:53.223Z,101205.45
2018-07-19T11:05:20.249Z,101208.06
2018-07-19T11:07:48.569Z,101212.25
2018-07-19T11:10:15.425Z,101217.45
2018-07-19T11:12:43.301Z,101220.03
2018-07-19T11:15:11.989Z,101218.55
2018-07-19T11:17:38.933Z,101217.14
2018-07-19T11:20:05.970Z,101213.98
2018-07-19T11:22:33.665Z,101219.05
2018-07-19T11:25:04.140Z,101217.30
2018-07-19T11:27:30.980Z,101215.63
2018-07-19T11:29:57.785Z,101211.68
2018-07-19T11:32:25.573Z,101220.53
2018-07-19T11:34:52.393Z,101223.20
2018-07-19T11:37:20.189Z,101222.20
2018-07-19T11:39:48.894Z,101216.96
2018-07-19T11:42:17.924Z,101216.55
2018-07-19T11:44:48.461Z,101224.45
2018-07-19T11:47:15.467Z,101223.13
2018-07-19T11:49:43.207Z,101215.75
2018-07-19T11:52:10.149Z,101214.72
2018-07-19T11:54:37.045Z,101212.52
2018-07-19T11:57:04.516Z,101216.05
2018-07-19T11:59:31.410Z,101211.84
2018-07-19T12:01:58.335Z,101218.07
2018-07-19T12:04:25.236Z,101219.55
2018-07-19T12:06:52.121Z,101209.67
2018-07-19T12:09:19.008Z,101212.41
2018-07-19T12:11:45.900Z,101211.34
2018-07-19T12:14:12.800Z,101213.59
2018-07-19T12:16:40.632Z,101206.59
2018-07-19T12:19:07.605Z,101211.91
2018-07-19T12:21:34.509Z,101211.27
2018-07-19T12:24:01.613Z,101215.68
2018-07-19T12:26:28.616Z,101215.19
2018-07-19T12:28:55.511Z,101217.84
2018-07-19T12:31:22.494Z,101214.69
2018-07-19T12:33:49.422Z,101214.34
2018-07-19T12:36:19.675Z,101213.09
2018-07-19T12:38:47.740Z,101219.59
2018-07-19T12:41:14.628Z,101220.81
2018-07-19T12:43:41.514Z,101221.84
2018-07-19T12:46:08.419Z,101215.98
2018-07-19T12:48:35.299Z,101221.57
2018-07-19T12:51:02.269Z,101221.15
2018-07-19T12:53:29.168Z,101226.55
2018-07-19T12:55:56.062Z,101222.63
2018-07-19T12:58:22.978Z,101223.54
2018-07-19T13:00:49.857Z,101224.91
2018-07-19T13:03:17.316Z,101227.65
2018-07-19T13:05:45.192Z,101224.08
2018-07-19T13:08:13.174Z,101224.72
2018-07-19T13:10:41.133Z,101225.83
2018-07-19T13:13:09.884Z,101218.00
2018-07-19T13:15:38.185Z,101217.42
2018-07-19T13:18:05.113Z,101218.14
2018-07-19T13:20:32.936Z,101215.91
2018-07-19T13:23:00.636Z,101219.06
2018-07-19T13:25:27.524Z,101216.73
2018-07-19T13:27:55.373Z,101220.23
2018-07-19T13:30:22.254Z,101217.58
2018-07-19T13:32:49.965Z,101212.18
2018-07-19T13:35:18.171Z,101209.67
2018-07-19T13:37:45.929Z,101209.25
2018-07-19T13:40:13.801Z,101208.91
2018-07-19T13:42:40.707Z,101204.84
2018-07-19T13:45:07.607Z,101202.72
2018-07-19T13:47:34.500Z,101203.59
2018-07-19T13:50:01.385Z,101201.81
2018-07-19T13:52:33.929Z,101197.89
2018-07-19T13:55:01.615Z,101197.70
2018-07-19T13:57:28.494Z,101195.45
2018-07-19T13:59:55.415Z,101189.34
2018-07-19T14:02:22.304Z,101190.33
2018-07-19T14:04:49.209Z,101186.23
2018-07-19T14:07:16.113Z,101180.26
2018-07-19T14:09:43.021Z,101176.34
2018-07-19T14:12:11.018Z,101176.20
2018-07-19T14:14:37.925Z,101173.19
2018-07-19T14:17:04.812Z,101169.55
2018-07-19T14:19:32.716Z,101175.02
2018-07-19T14:21:59.612Z,101176.00
2018-07-19T14:24:27.369Z,101176.20
2018-07-19T14:26:55.248Z,101173.19
2018-07-19T14:29:23.024Z,101171.86
2018-07-19T14:31:50.829Z,101176.13
2018-07-19T14:34:18.677Z,101170.19
2018-07-19T14:36:45.557Z,101166.55
2018-07-19T14:39:13.280Z,101166.20
2018-07-19T14:41:41.224Z,101159.41
2018-07-19T14:44:08.437Z,101158.34
2018-07-19T14:46:35.454Z,101161.98
2018-07-19T14:49:03.373Z,101158.23
2018-07-19T14:51:31.213Z,101155.34
2018-07-19T14:53:58.132Z,101152.80
2018-07-19T14:56:25.889Z,101151.20
2018-07-19T14:58:53.612Z,101151.47
2018-07-19T15:01:20.692Z,101157.39
2018-07-19T15:03:48.264Z,101151.69
2018-07-19T15:06:19.708Z,101150.06
2018-07-19T15:08:48.220Z,101147.75
2018-07-19T15:11:15.940Z,101147.75
2018-07-19T15:13:43.900Z,101145.09
2018-07-19T15:16:11.748Z,101139.42
2018-07-19T15:18:38.616Z,101138.09
2018-07-19T15:21:07.181Z,101134.59
2018-07-19T15:23:35.136Z,101133.69
2018-07-19T15:26:02.036Z,101134.72
2018-07-19T15:28:29.755Z,101130.30
2018-07-19T15:30:57.432Z,101129.47
2018-07-19T15:33:25.273Z,101130.80
2018-07-19T15:35:52.164Z,101129.35
2018-07-19T15:38:19.049Z,101127.53
2018-07-19T15:40:47.745Z,101123.05
2018-07-19T15:43:14.666Z,101127.04
2018-07-19T15:45:41.581Z,101124.16
2018-07-19T15:48:09.345Z,101121.87
2018-07-19T15:50:40.873Z,101123.05
2018-07-19T15:53:07.777Z,101119.14
2018-07-19T15:55:34.761Z,101118.00
2018-07-19T15:58:01.661Z,101119.48
2018-07-19T16:00:28.689Z,101114.66
2018-07-19T16:02:55.689Z,101118.48
2018-07-19T16:05:23.657Z,101119.33
2018-07-19T16:07:50.536Z,101117.16
2018-07-19T16:10:18.132Z,101115.22
2018-07-19T16:12:45.945Z,101121.37
2018-07-19T16:15:12.840Z,101114.01
2018-07-19T16:17:41.961Z,101113.52
2018-07-19T16:20:10.753Z,101113.17
2018-07-19T16:22:38.592Z,101112.83
2018-07-19T16:25:05.532Z,101115.83
2018-07-19T16:27:32.405Z,101114.72
2018-07-19T16:30:00.123Z,101114.84
2018-07-19T16:32:27.177Z,101111.84
2018-07-19T16:34:54.889Z,101106.19
2018-07-19T16:37:22.897Z,101105.69
2018-07-19T16:39:50.804Z,101105.34
2018-07-19T16:42:18.700Z,101107.02
2018-07-19T16:44:45.572Z,101099.04
2018-07-19T16:47:13.317Z,101100.86
2018-07-19T16:49:41.201Z,101102.19
2018-07-19T16:52:09.928Z,101104.85
2018-07-19T16:54:37.696Z,101098.70
2018-07-19T16:57:05.758Z,101090.38
2018-07-19T16:59:33.484Z,101090.38
2018-07-19T17:02:01.357Z,101093.38
2018-07-19T17:04:28.953Z,101091.55
2018-07-19T17:06:56.412Z,101095.20
2018-07-19T17:09:24.180Z,101095.81
2018-07-19T17:11:50.852Z,101090.00
2018-07-19T17:14:18.735Z,101092.31
2018-07-19T17:16:45.405Z,101092.88
2018-07-19T17:19:12.072Z,101095.20
2018-07-19T17:21:39.752Z,101095.70
2018-07-19T17:24:06.409Z,101089.51
2018-07-19T17:26:33.153Z,101093.88
2018-07-19T17:29:00.133Z,101095.20
2018-07-19T17:31:26.800Z,101097.36
2018-07-19T17:33:53.436Z,101097.55
2018-07-19T17:36:20.117Z,101092.88
2018-07-19T17:38:47.847Z,101088.89
2018-07-19T17:41:15.489Z,101089.73
2018-07-19T17:43:43.012Z,101089.88
2018-07-19T17:46:10.460Z,101089.16
2018-07-19T17:48:37.160Z,101095.32
2018-07-19T17:51:04.017Z,101093.99
2018-07-19T17:53:30.701Z,101094.37
2018-07-19T17:55:57.590Z,101097.02
2018-07-19T17:58:24.262Z,101097.86
2018-07-19T18:00:51.969Z,101100.30
2018-07-19T18:03:18.619Z,101102.46
2018-07-19T18:05:45.349Z,101101.97
2018-07-19T18:08:12.157Z,101102.46
2018-07-19T18:10:39.447Z,101106.80
2018-07-19T18:13:06.098Z,101109.18
2018-07-19T18:15:32.744Z,101104.58
2018-07-19T18:17:59.529Z,101106.80
2018-07-19T18:20:26.236Z,101109.83
2018-07-19T18:22:52.956Z,101110.78
2018-07-19T18:25:19.593Z,101112.61
2018-07-19T18:27:48.452Z,101108.27
2018-07-19T18:30:15.098Z,101115.08
2018-07-19T18:32:41.770Z,101121.72
2018-07-19T18:35:08.617Z,101115.19
2018-07-19T18:37:35.309Z,101117.85
2018-07-19T18:40:01.997Z,101122.06
2018-07-19T18:42:28.675Z,101121.58
2018-07-19T18:44:55.497Z,101120.05
2018-07-19T18:47:23.142Z,101123.89
2018-07-19T18:49:49.800Z,101127.88
2018-07-19T18:52:16.451Z,101127.66
2018-07-19T18:54:58.741Z,101132.63
2018-07-19T18:57:25.446Z,101131.94
2018-07-19T18:59:52.250Z,101131.87
2018-07-19T19:02:18.937Z,101133.39
2018-07-19T19:04:47.186Z,101136.47
2018-07-19T19:07:13.879Z,101142.43
2018-07-19T19:09:40.601Z,101138.09
2018-07-19T19:12:07.408Z,101142.92
2018-07-19T19:14:34.205Z,101142.50
2018-07-19T19:17:01.849Z,101142.09
2018-07-19T19:19:29.741Z,101146.00
2018-07-19T19:21:56.479Z,101145.58
2018-07-19T19:24:23.153Z,101148.92
2018-07-19T19:26:49.846Z,101149.08
2018-07-19T19:29:16.505Z,101152.72
2018-07-19T19:31:43.265Z,101153.70
2018-07-19T19:34:11.032Z,101160.82
2018-07-19T19:36:37.752Z,101158.66
2018-07-19T19:39:06.178Z,101160.13
2018-07-19T19:41:33.905Z,101166.63
2018-07-19T19:44:00.588Z,101164.95
2018-07-19T19:46:27.301Z,101163.63
2018-07-19T19:48:54.009Z,101177.42
2018-07-19T19:51:20.700Z,101164.61
2018-07-19T19:53:48.148Z,101172.25
2018-07-19T19:56:15.062Z,101169.22
2018-07-19T19:58:42.784Z,101163.06
2018-07-19T20:01:10.496Z,101165.95
2018-07-19T20:03:38.154Z,101164.81
2018-07-19T20:06:05.761Z,101166.92
2018-07-19T20:08:32.440Z,101169.22
2018-07-19T20:10:59.089Z,101172.52
2018-07-19T20:13:25.787Z,101171.19
2018-07-19T20:15:53.328Z,101173.50
2018-07-19T20:18:20.893Z,101171.83
2018-07-19T20:20:48.544Z,101174.11
2018-07-19T20:23:16.188Z,101174.48
2018-07-19T20:25:42.831Z,101177.41
2018-07-19T20:28:11.958Z,101175.44
2018-07-19T20:30:41.060Z,101175.09
2018-07-19T20:33:07.841Z,101175.93
2018-07-19T20:35:34.504Z,101173.42
2018-07-19T20:38:02.087Z,101177.26
2018-07-19T20:40:28.772Z,101174.26
2018-07-19T20:42:56.429Z,101179.72
2018-07-19T20:45:23.238Z,101182.00
2018-07-19T20:47:49.953Z,101175.93
2018-07-19T20:50:17.621Z,101170.91
2018-07-19T20:52:44.308Z,101171.52
2018-07-19T20:55:10.963Z,101175.84
2018-07-19T20:57:37.823Z,101176.34
2018-07-19T21:00:04.508Z,101172.50
2018-07-19T21:02:31.168Z,101176.34
2018-07-19T21:04:57.990Z,101175.66
2018-07-19T21:07:24.660Z,101173.11
2018-07-19T21:09:52.293Z,101178.43
2018-07-19T21:12:18.961Z,101172.66
2018-07-19T21:14:48.015Z,101174.25
2018-07-19T21:17:15.460Z,101183.75
2018-07-19T21:19:42.122Z,101183.63
2018-07-19T21:22:08.785Z,101186.06
2018-07-19T21:24:36.340Z,101186.70
2018-07-19T21:27:04.005Z,101181.00
2018-07-19T21:29:38.860Z,101183.06
2018-07-19T21:32:07.141Z,101180.23
2018-07-19T21:34:34.230Z,101184.80
2018-07-19T21:37:00.950Z,101184.80
2018-07-19T21:39:27.629Z,101185.14
2018-07-19T21:41:55.144Z,101177.66
2018-07-19T21:44:21.824Z,101173.25
2018-07-19T21:46:49.108Z,101178.22
2018-07-19T21:49:15.785Z,101175.56
2018-07-19T21:51:42.602Z,101174.15
2018-07-19T21:54:09.320Z,101172.52
2018-07-19T21:56:35.960Z,101174.06
2018-07-19T21:59:02.661Z,101179.72
2018-07-19T22:01:30.212Z,101180.48
2018-07-19T22:03:56.885Z,101176.20
2018-07-19T22:06:24.340Z,101179.92
2018-07-19T22:08:52.038Z,101177.65
2018-07-19T22:11:19.641Z,101179.81
2018-07-19T22:13:48.669Z,101167.95
2018-07-19T22:16:18.944Z,101173.18
2018-07-19T22:18:45.615Z,101170.58
2018-07-19T22:21:12.264Z,101173.88
2018-07-19T22:23:40.882Z,101169.25
2018-07-19T22:26:07.598Z,101171.64
2018-07-19T22:28:35.169Z,101174.22
2018-07-19T22:31:02.765Z,101175.08
2018-07-19T22:33:29.424Z,101170.61
2018-07-19T22:35:57.116Z,101168.21
2018-07-19T22:38:24.721Z,101175.84
2018-07-19T22:40:52.292Z,101179.04
2018-07-19T22:43:18.960Z,101181.70
2018-07-19T22:45:45.604Z,101181.84
2018-07-19T22:48:12.304Z,101178.84
2018-07-19T22:50:41.064Z,101182.08
2018-07-19T22:53:08.745Z,101185.70
2018-07-19T22:55:36.388Z,101185.13
2018-07-19T22:58:03.044Z,101192.13
2018-07-19T23:00:30.910Z,101188.14
2018-07-19T23:02:57.677Z,101186.94
2018-07-19T23:05:25.296Z,101185.50
2018-07-19T23:07:52.776Z,101190.23
2018-07-19T23:10:20.378Z,101195.66
2018-07-19T23:12:48.418Z,101187.17
2018-07-19T23:15:15.092Z,101191.52
2018-07-19T23:17:41.943Z,101192.60
2018-07-19T23:20:10.196Z,101188.63
2018-07-19T23:22:37.793Z,101192.95
2018-07-19T23:25:04.447Z,101184.63
2018-07-19T23:27:32.058Z,101189.83
2018-07-19T23:29:58.757Z,101189.02
2018-07-19T23:32:26.456Z,101194.56
2018-07-19T23:34:53.243Z,101194.91
2018-07-19T23:37:25.596Z,101192.31
2018-07-19T23:39:57.920Z,101187.49
2018-07-19T23:42:35.616Z,101192.41
2018-07-19T23:45:08.340Z,101190.50
2018-07-19T23:47:37.041Z,101191.52
2018-07-19T23:50:03.681Z,101192.26
2018-07-19T23:52:30.382Z,101189.20
2018-07-19T23:54:57.048Z,101195.12
2018-07-19T23:57:23.692Z,101196.59
2018-07-19T23:59:50.380Z,101193.88
